sensor_id;sensor_type;location;lat;lon;timestamp;pressure;altitude;pressure_sealevel;temperature;humidity
73952;BME280;62304;47.662;18.324;2024-03-02T00:02:03;99600.78;;;8.76;100.00
73952;BME280;62304;47.662;18.324;2024-03-02T00:05:11;99610.16;;;8.68;99.21
73952;BME280;62304;47.662;18.324;2024-03-02T00:08:22;99600.22;;;8.64;100.00
73952;BME280;62304;47.662;18.324;2024-03-02T00:11:26;99598.22;;;8.61;100.00
73952;BME280;62304;47.662;18.324;2024-03-02T00:14:30;99597.66;;;8.78;100.00
73952;BME280;62304;47.662;18.324;2024-03-02T00:17:33;99602.69;;;8.72;100.00
73952;BME280;62304;47.662;18.324;2024-03-02T00:20:36;99607.56;;;8.53;100.00
73952;BME280;62304;47.662;18.324;2024-03-02T00:23:39;99592.72;;;8.64;100.00
73952;BME280;62304;47.662;18.324;2024-03-02T00:26:45;99600.13;;;8.57;100.00
73952;BME280;62304;47.662;18.324;2024-03-02T00:29:48;99595.81;;;8.59;100.00
73952;BME280;62304;47.662;18.324;2024-03-02T00:32:51;99592.16;;;8.81;100.00
73952;BME280;62304;47.662;18.324;2024-03-02T00:35:56;99597.41;;;8.60;100.00
73952;BME280;62304;47.662;18.324;2024-03-02T00:38:59;99608.00;;;8.55;100.00
73952;BME280;62304;47.662;18.324;2024-03-02T00:42:02;99615.69;;;8.68;100.00
73952;BME280;62304;47.662;18.324;2024-03-02T00:45:07;99606.09;;;8.59;100.00
73952;BME280;62304;47.662;18.324;2024-03-02T00:48:11;99598.53;;;8.56;100.00
73952;BME280;62304;47.662;18.324;2024-03-02T00:51:14;99599.81;;;8.62;100.00
73952;BME280;62304;47.662;18.324;2024-03-02T00:54:23;99599.72;;;8.55;100.00
73952;BME280;62304;47.662;18.324;2024-03-02T00:57:29;99598.19;;;8.57;100.00
73952;BME280;62304;47.662;18.324;2024-03-02T01:00:36;99597.72;;;8.55;100.00
73952;BME280;62304;47.662;18.324;2024-03-02T01:03:39;99585.81;;;8.48;100.00
73952;BME280;62304;47.662;18.324;2024-03-02T01:06:44;99594.88;;;8.48;100.00
73952;BME280;62304;47.662;18.324;2024-03-02T01:09:48;99600.62;;;8.36;100.00
73952;BME280;62304;47.662;18.324;2024-03-02T01:12:52;99586.31;;;8.57;100.00
73952;BME280;62304;47.662;18.324;2024-03-02T01:15:55;99600.53;;;8.29;100.00
73952;BME280;62304;47.662;18.324;2024-03-02T01:18:59;99590.91;;;8.20;100.00
73952;BME280;62304;47.662;18.324;2024-03-02T01:22:02;99587.97;;;8.09;100.00
73952;BME280;62304;47.662;18.324;2024-03-02T01:25:05;99588.97;;;8.20;100.00
73952;BME280;62304;47.662;18.324;2024-03-02T01:28:09;99581.81;;;7.93;100.00
73952;BME280;62304;47.662;18.324;2024-03-02T01:31:12;99576.16;;;7.60;100.00
73952;BME280;62304;47.662;18.324;2024-03-02T01:34:15;99582.53;;;7.42;100.00
73952;BME280;62304;47.662;18.324;2024-03-02T01:37:19;99576.94;;;7.38;100.00
73952;BME280;62304;47.662;18.324;2024-03-02T01:40:22;99574.13;;;7.57;100.00
73952;BME280;62304;47.662;18.324;2024-03-02T01:43:29;99570.16;;;7.81;100.00
73952;BME280;62304;47.662;18.324;2024-03-02T01:46:32;99565.66;;;7.69;100.00
73952;BME280;62304;47.662;18.324;2024-03-02T01:49:35;99568.63;;;7.83;100.00
73952;BME280;62304;47.662;18.324;2024-03-02T01:52:39;99559.72;;;7.93;100.00
73952;BME280;62304;47.662;18.324;2024-03-02T01:55:42;99558.94;;;7.93;100.00
73952;BME280;62304;47.662;18.324;2024-03-02T01:58:46;99564.78;;;7.88;100.00
73952;BME280;62304;47.662;18.324;2024-03-02T02:01:49;99555.31;;;7.89;100.00
73952;BME280;62304;47.662;18.324;2024-03-02T02:04:52;99557.50;;;7.76;100.00
73952;BME280;62304;47.662;18.324;2024-03-02T02:07:55;99565.00;;;7.53;100.00
73952;BME280;62304;47.662;18.324;2024-03-02T02:10:58;99573.25;;;7.31;100.00
73952;BME280;62304;47.662;18.324;2024-03-02T02:14:01;99572.22;;;7.16;100.00
73952;BME280;62304;47.662;18.324;2024-03-02T02:17:04;99577.25;;;7.56;100.00
73952;BME280;62304;47.662;18.324;2024-03-02T02:20:08;99580.06;;;7.59;100.00
73952;BME280;62304;47.662;18.324;2024-03-02T02:23:11;99580.38;;;7.77;100.00
73952;BME280;62304;47.662;18.324;2024-03-02T02:26:16;99580.63;;;7.68;100.00
73952;BME280;62304;47.662;18.324;2024-03-02T02:29:19;99583.50;;;7.75;100.00
73952;BME280;62304;47.662;18.324;2024-03-02T02:32:22;99581.16;;;7.77;100.00
73952;BME280;62304;47.662;18.324;2024-03-02T02:35:25;99585.19;;;7.83;100.00
73952;BME280;62304;47.662;18.324;2024-03-02T02:38:28;99603.19;;;7.74;100.00
73952;BME280;62304;47.662;18.324;2024-03-02T02:41:32;99592.56;;;7.76;100.00
73952;BME280;62304;47.662;18.324;2024-03-02T02:44:35;99596.87;;;7.99;100.00
73952;BME280;62304;47.662;18.324;2024-03-02T02:47:38;99590.69;;;8.06;100.00
73952;BME280;62304;47.662;18.324;2024-03-02T02:50:41;99597.37;;;8.05;100.00
73952;BME280;62304;47.662;18.324;2024-03-02T02:53:44;99592.69;;;8.09;100.00
73952;BME280;62304;47.662;18.324;2024-03-02T02:56:48;99593.44;;;8.06;100.00
73952;BME280;62304;47.662;18.324;2024-03-02T02:59:51;99592.31;;;8.10;100.00
73952;BME280;62304;47.662;18.324;2024-03-02T03:02:54;99594.44;;;7.68;100.00
73952;BME280;62304;47.662;18.324;2024-03-02T03:05:57;99599.84;;;7.87;100.00
73952;BME280;62304;47.662;18.324;2024-03-02T03:09:00;99593.44;;;8.06;100.00
73952;BME280;62304;47.662;18.324;2024-03-02T03:12:04;99591.72;;;8.20;100.00
73952;BME280;62304;47.662;18.324;2024-03-02T03:15:07;99600.16;;;8.31;100.00
73952;BME280;62304;47.662;18.324;2024-03-02T03:18:11;99594.56;;;8.01;100.00
73952;BME280;62304;47.662;18.324;2024-03-02T03:21:14;99602.41;;;7.99;100.00
73952;BME280;62304;47.662;18.324;2024-03-02T03:24:17;99599.66;;;7.99;100.00
73952;BME280;62304;47.662;18.324;2024-03-02T03:27:20;99600.62;;;8.10;100.00
73952;BME280;62304;47.662;18.324;2024-03-02T03:30:23;99608.47;;;8.08;100.00
73952;BME280;62304;47.662;18.324;2024-03-02T03:33:26;99600.00;;;8.20;100.00
73952;BME280;62304;47.662;18.324;2024-03-02T03:36:30;99602.19;;;8.11;100.00
73952;BME280;62304;47.662;18.324;2024-03-02T03:39:34;99590.09;;;7.93;100.00
73952;BME280;62304;47.662;18.324;2024-03-02T03:42:39;99579.47;;;7.95;100.00
73952;BME280;62304;47.662;18.324;2024-03-02T03:45:42;99582.16;;;7.92;100.00
73952;BME280;62304;47.662;18.324;2024-03-02T03:48:45;99587.03;;;7.98;100.00
73952;BME280;62304;47.662;18.324;2024-03-02T03:51:48;99590.63;;;8.02;100.00
73952;BME280;62304;47.662;18.324;2024-03-02T03:54:52;99593.59;;;8.16;100.00
73952;BME280;62304;47.662;18.324;2024-03-02T03:57:55;99597.16;;;8.17;100.00
73952;BME280;62304;47.662;18.324;2024-03-02T04:00:59;99599.66;;;8.22;100.00
73952;BME280;62304;47.662;18.324;2024-03-02T04:04:04;99596.66;;;8.34;100.00
73952;BME280;62304;47.662;18.324;2024-03-02T04:07:07;99587.56;;;8.33;100.00
73952;BME280;62304;47.662;18.324;2024-03-02T04:10:10;99595.22;;;8.43;100.00
73952;BME280;62304;47.662;18.324;2024-03-02T04:13:14;99600.91;;;8.54;100.00
73952;BME280;62304;47.662;18.324;2024-03-02T04:16:18;99597.41;;;8.60;100.00
73952;BME280;62304;47.662;18.324;2024-03-02T04:19:21;99595.69;;;8.78;100.00
73952;BME280;62304;47.662;18.324;2024-03-02T04:22:24;99595.59;;;9.04;98.12
73952;BME280;62304;47.662;18.324;2024-03-02T04:25:27;99601.69;;;9.20;96.31
73952;BME280;62304;47.662;18.324;2024-03-02T04:28:30;99611.69;;;9.28;95.58
73952;BME280;62304;47.662;18.324;2024-03-02T04:31:33;99611.34;;;9.33;94.77
73952;BME280;62304;47.662;18.324;2024-03-02T04:34:37;99610.97;;;9.38;94.33
73952;BME280;62304;47.662;18.324;2024-03-02T04:37:40;99616.50;;;9.38;94.45
73952;BME280;62304;47.662;18.324;2024-03-02T04:40:43;99619.72;;;9.40;94.57
73952;BME280;62304;47.662;18.324;2024-03-02T04:43:46;99618.56;;;9.45;94.36
73952;BME280;62304;47.662;18.324;2024-03-02T04:46:49;99613.50;;;9.50;94.22
73952;BME280;62304;47.662;18.324;2024-03-02T04:49:52;99615.72;;;9.38;93.70
73952;BME280;62304;47.662;18.324;2024-03-02T04:52:55;99615.00;;;9.44;94.54
73952;BME280;62304;47.662;18.324;2024-03-02T04:55:58;99613.84;;;9.45;93.66
73952;BME280;62304;47.662;18.324;2024-03-02T04:59:21;99616.66;;;9.52;93.28
73952;BME280;62304;47.662;18.324;2024-03-02T05:02:24;99624.16;;;9.52;93.20
73952;BME280;62304;47.662;18.324;2024-03-02T05:05:27;99617.38;;;9.46;92.63
73952;BME280;62304;47.662;18.324;2024-03-02T05:08:31;99623.78;;;9.53;91.73
73952;BME280;62304;47.662;18.324;2024-03-02T05:11:35;99615.06;;;9.51;91.87
73952;BME280;62304;47.662;18.324;2024-03-02T05:14:41;99624.09;;;9.45;91.66
73952;BME280;62304;47.662;18.324;2024-03-02T05:17:44;99628.88;;;9.48;91.48
73952;BME280;62304;47.662;18.324;2024-03-02T05:20:48;99628.00;;;9.40;91.55
73952;BME280;62304;47.662;18.324;2024-03-02T05:23:51;99635.13;;;9.41;91.81
73952;BME280;62304;47.662;18.324;2024-03-02T05:26:54;99637.53;;;9.43;91.58
73952;BME280;62304;47.662;18.324;2024-03-02T05:29:58;99633.94;;;9.42;91.74
73952;BME280;62304;47.662;18.324;2024-03-02T05:33:01;99640.59;;;9.34;92.17
73952;BME280;62304;47.662;18.324;2024-03-02T05:36:05;99634.19;;;9.27;92.51
73952;BME280;62304;47.662;18.324;2024-03-02T05:39:08;99639.34;;;9.28;92.46
73952;BME280;62304;47.662;18.324;2024-03-02T05:42:13;99648.06;;;9.30;92.56
73952;BME280;62304;47.662;18.324;2024-03-02T05:45:16;99645.28;;;9.30;92.74
73952;BME280;62304;47.662;18.324;2024-03-02T05:48:20;99647.53;;;9.21;93.35
73952;BME280;62304;47.662;18.324;2024-03-02T05:51:23;99651.94;;;9.22;93.52
73952;BME280;62304;47.662;18.324;2024-03-02T05:54:26;99648.00;;;9.23;93.39
73952;BME280;62304;47.662;18.324;2024-03-02T05:57:29;99652.69;;;9.19;94.23
73952;BME280;62304;47.662;18.324;2024-03-02T06:00:52;99658.16;;;9.16;94.55
73952;BME280;62304;47.662;18.324;2024-03-02T06:03:58;99658.13;;;9.12;95.09
73952;BME280;62304;47.662;18.324;2024-03-02T06:07:01;99658.47;;;9.07;95.91
73952;BME280;62304;47.662;18.324;2024-03-02T06:10:05;99669.09;;;9.05;96.50
73952;BME280;62304;47.662;18.324;2024-03-02T06:13:15;99678.56;;;9.04;96.97
73952;BME280;62304;47.662;18.324;2024-03-02T06:16:18;99670.66;;;9.03;97.47
73952;BME280;62304;47.662;18.324;2024-03-02T06:19:22;99688.81;;;9.00;97.96
73952;BME280;62304;47.662;18.324;2024-03-02T06:22:25;99678.88;;;8.99;98.62
73952;BME280;62304;47.662;18.324;2024-03-02T06:25:28;99682.44;;;8.96;98.98
73952;BME280;62304;47.662;18.324;2024-03-02T06:28:31;99689.13;;;8.95;99.59
73952;BME280;62304;47.662;18.324;2024-03-02T06:31:34;99690.25;;;8.91;100.00
73952;BME280;62304;47.662;18.324;2024-03-02T06:34:38;99684.28;;;8.89;100.00
73952;BME280;62304;47.662;18.324;2024-03-02T06:37:41;99688.97;;;8.85;100.00
73952;BME280;62304;47.662;18.324;2024-03-02T06:40:44;99684.56;;;8.80;100.00
73952;BME280;62304;47.662;18.324;2024-03-02T06:43:47;99689.25;;;8.76;100.00
73952;BME280;62304;47.662;18.324;2024-03-02T06:46:50;99685.25;;;8.74;100.00
73952;BME280;62304;47.662;18.324;2024-03-02T06:49:53;99689.16;;;8.69;100.00
73952;BME280;62304;47.662;18.324;2024-03-02T06:52:56;99689.13;;;8.66;100.00
73952;BME280;62304;47.662;18.324;2024-03-02T06:55:59;99698.13;;;8.63;100.00
73952;BME280;62304;47.662;18.324;2024-03-02T06:59:06;99691.38;;;8.60;100.00
73952;BME280;62304;47.662;18.324;2024-03-02T07:02:09;99679.44;;;8.53;100.00
73952;BME280;62304;47.662;18.324;2024-03-02T07:05:13;99685.03;;;8.56;100.00
73952;BME280;62304;47.662;18.324;2024-03-02T07:08:17;99690.13;;;8.54;100.00
73952;BME280;62304;47.662;18.324;2024-03-02T07:11:20;99692.09;;;8.54;100.00
73952;BME280;62304;47.662;18.324;2024-03-02T07:14:23;99694.41;;;8.52;100.00
73952;BME280;62304;47.662;18.324;2024-03-02T07:17:46;99696.78;;;8.50;100.00
73952;BME280;62304;47.662;18.324;2024-03-02T07:20:49;99700.72;;;8.49;100.00
73952;BME280;62304;47.662;18.324;2024-03-02T07:23:52;99709.78;;;8.49;100.00
73952;BME280;62304;47.662;18.324;2024-03-02T07:26:55;99687.87;;;8.37;100.00
73952;BME280;62304;47.662;18.324;2024-03-02T07:29:59;99711.00;;;8.52;100.00
73952;BME280;62304;47.662;18.324;2024-03-02T07:33:02;99720.50;;;8.54;100.00
73952;BME280;62304;47.662;18.324;2024-03-02T07:36:06;99710.31;;;8.58;100.00
73952;BME280;62304;47.662;18.324;2024-03-02T07:39:09;99719.03;;;8.60;100.00
73952;BME280;62304;47.662;18.324;2024-03-02T07:42:12;99726.63;;;8.67;100.00
73952;BME280;62304;47.662;18.324;2024-03-02T07:45:15;99723.59;;;8.75;100.00
73952;BME280;62304;47.662;18.324;2024-03-02T07:48:18;99725.28;;;8.83;100.00
73952;BME280;62304;47.662;18.324;2024-03-02T07:51:22;99721.06;;;8.89;100.00
73952;BME280;62304;47.662;18.324;2024-03-02T07:54:25;99725.09;;;8.95;100.00
73952;BME280;62304;47.662;18.324;2024-03-02T07:57:28;99728.88;;;9.13;100.00
73952;BME280;62304;47.662;18.324;2024-03-02T08:00:32;99729.00;;;9.24;100.00
73952;BME280;62304;47.662;18.324;2024-03-02T08:03:37;99733.50;;;9.35;100.00
73952;BME280;62304;47.662;18.324;2024-03-02T08:06:40;99740.31;;;9.41;100.00
73952;BME280;62304;47.662;18.324;2024-03-02T08:09:46;99736.31;;;9.39;100.00
73952;BME280;62304;47.662;18.324;2024-03-02T08:12:49;99744.69;;;9.46;100.00
73952;BME280;62304;47.662;18.324;2024-03-02T08:15:53;99746.34;;;9.50;100.00
73952;BME280;62304;47.662;18.324;2024-03-02T08:18:56;99747.06;;;9.44;100.00
73952;BME280;62304;47.662;18.324;2024-03-02T08:22:01;99749.22;;;9.28;100.00
73952;BME280;62304;47.662;18.324;2024-03-02T08:25:07;99754.88;;;9.38;100.00
73952;BME280;62304;47.662;18.324;2024-03-02T08:28:11;99748.59;;;9.41;100.00
73952;BME280;62304;47.662;18.324;2024-03-02T08:31:14;99757.31;;;9.43;100.00
73952;BME280;62304;47.662;18.324;2024-03-02T08:34:17;99762.84;;;9.43;100.00
73952;BME280;62304;47.662;18.324;2024-03-02T08:37:20;99763.72;;;9.47;100.00
73952;BME280;62304;47.662;18.324;2024-03-02T08:40:23;99753.81;;;9.46;100.00
73952;BME280;62304;47.662;18.324;2024-03-02T08:43:26;99752.97;;;9.42;100.00
73952;BME280;62304;47.662;18.324;2024-03-02T08:46:30;99755.03;;;9.49;100.00
73952;BME280;62304;47.662;18.324;2024-03-02T08:49:33;99762.13;;;9.46;100.00
73952;BME280;62304;47.662;18.324;2024-03-02T08:52:36;99762.56;;;9.52;100.00
73952;BME280;62304;47.662;18.324;2024-03-02T08:55:39;99755.09;;;9.56;100.00
73952;BME280;62304;47.662;18.324;2024-03-02T08:58:43;99756.00;;;9.63;100.00
73952;BME280;62304;47.662;18.324;2024-03-02T09:01:46;99761.62;;;9.74;100.00
73952;BME280;62304;47.662;18.324;2024-03-02T09:04:51;99747.88;;;9.77;100.00
73952;BME280;62304;47.662;18.324;2024-03-02T09:07:55;99752.88;;;9.68;100.00
73952;BME280;62304;47.662;18.324;2024-03-02T09:11:02;99756.84;;;9.67;100.00
73952;BME280;62304;47.662;18.324;2024-03-02T09:14:06;99767.28;;;9.81;100.00
73952;BME280;62304;47.662;18.324;2024-03-02T09:17:10;99760.16;;;9.80;100.00
73952;BME280;62304;47.662;18.324;2024-03-02T09:20:14;99756.50;;;9.72;100.00
73952;BME280;62304;47.662;18.324;2024-03-02T09:23:19;99760.59;;;9.85;100.00
73952;BME280;62304;47.662;18.324;2024-03-02T09:26:23;99765.37;;;9.88;100.00
73952;BME280;62304;47.662;18.324;2024-03-02T09:29:27;99751.59;;;9.95;100.00
73952;BME280;62304;47.662;18.324;2024-03-02T09:32:31;99767.50;;;10.02;100.00
73952;BME280;62304;47.662;18.324;2024-03-02T09:35:34;99764.00;;;10.05;100.00
73952;BME280;62304;47.662;18.324;2024-03-02T09:38:37;99757.75;;;10.11;100.00
73952;BME280;62304;47.662;18.324;2024-03-02T09:41:41;99772.72;;;10.07;100.00
73952;BME280;62304;47.662;18.324;2024-03-02T09:44:44;99772.37;;;10.12;100.00
73952;BME280;62304;47.662;18.324;2024-03-02T09:47:48;99768.38;;;10.09;100.00
73952;BME280;62304;47.662;18.324;2024-03-02T09:50:51;99781.91;;;10.14;100.00
73952;BME280;62304;47.662;18.324;2024-03-02T09:53:55;99778.34;;;10.14;100.00
73952;BME280;62304;47.662;18.324;2024-03-02T09:57:15;99756.50;;;10.05;100.00
73952;BME280;62304;47.662;18.324;2024-03-02T10:00:19;99776.59;;;10.02;100.00
73952;BME280;62304;47.662;18.324;2024-03-02T10:03:23;99778.16;;;10.00;100.00
73952;BME280;62304;47.662;18.324;2024-03-02T10:06:29;99772.06;;;9.87;100.00
73952;BME280;62304;47.662;18.324;2024-03-02T10:09:32;99764.69;;;9.98;100.00
73952;BME280;62304;47.662;18.324;2024-03-02T10:12:35;99767.44;;;9.98;100.00
73952;BME280;62304;47.662;18.324;2024-03-02T10:15:40;99761.78;;;9.84;100.00
73952;BME280;62304;47.662;18.324;2024-03-02T10:18:45;99771.28;;;9.83;100.00
73952;BME280;62304;47.662;18.324;2024-03-02T10:21:51;99763.69;;;9.80;100.00
73952;BME280;62304;47.662;18.324;2024-03-02T10:24:55;99768.50;;;9.83;100.00
73952;BME280;62304;47.662;18.324;2024-03-02T10:28:01;99772.84;;;9.84;100.00
73952;BME280;62304;47.662;18.324;2024-03-02T10:31:05;99764.47;;;9.77;100.00
73952;BME280;62304;47.662;18.324;2024-03-02T10:34:11;99766.53;;;9.87;100.00
73952;BME280;62304;47.662;18.324;2024-03-02T10:37:15;99763.38;;;9.85;100.00
73952;BME280;62304;47.662;18.324;2024-03-02T10:40:23;99763.06;;;9.94;100.00
73952;BME280;62304;47.662;18.324;2024-03-02T10:43:26;99763.53;;;9.99;100.00
73952;BME280;62304;47.662;18.324;2024-03-02T10:46:30;99759.66;;;10.07;100.00
73952;BME280;62304;47.662;18.324;2024-03-02T10:49:34;99756.03;;;10.03;100.00
73952;BME280;62304;47.662;18.324;2024-03-02T10:52:38;99761.22;;;10.05;100.00
73952;BME280;62304;47.662;18.324;2024-03-02T10:55:41;99754.12;;;10.07;100.00
73952;BME280;62304;47.662;18.324;2024-03-02T10:58:46;99749.87;;;10.20;100.00
73952;BME280;62304;47.662;18.324;2024-03-02T11:01:50;99747.25;;;10.34;100.00
73952;BME280;62304;47.662;18.324;2024-03-02T11:04:55;99743.31;;;10.35;100.00
73952;BME280;62304;47.662;18.324;2024-03-02T11:08:06;99746.22;;;10.53;100.00
73952;BME280;62304;47.662;18.324;2024-03-02T11:11:15;99752.16;;;10.51;100.00
73952;BME280;62304;47.662;18.324;2024-03-02T11:14:23;99752.62;;;10.60;100.00
73952;BME280;62304;47.662;18.324;2024-03-02T11:17:33;99746.62;;;10.55;100.00
73952;BME280;62304;47.662;18.324;2024-03-02T11:20:39;99751.41;;;10.58;100.00
73952;BME280;62304;47.662;18.324;2024-03-02T11:23:45;99748.53;;;10.47;100.00
73952;BME280;62304;47.662;18.324;2024-03-02T11:26:51;99740.19;;;10.40;100.00
73952;BME280;62304;47.662;18.324;2024-03-02T11:29:55;99743.00;;;10.47;100.00
73952;BME280;62304;47.662;18.324;2024-03-02T11:32:59;99744.19;;;10.46;100.00
73952;BME280;62304;47.662;18.324;2024-03-02T11:36:03;99724.75;;;10.43;100.00
73952;BME280;62304;47.662;18.324;2024-03-02T11:39:06;99742.13;;;10.40;100.00
73952;BME280;62304;47.662;18.324;2024-03-02T11:42:12;99738.16;;;10.37;100.00
73952;BME280;62304;47.662;18.324;2024-03-02T11:45:35;99737.03;;;10.42;100.00
73952;BME280;62304;47.662;18.324;2024-03-02T11:48:46;99724.19;;;10.23;100.00
73952;BME280;62304;47.662;18.324;2024-03-02T11:51:54;99739.44;;;10.43;100.00
73952;BME280;62304;47.662;18.324;2024-03-02T11:55:05;99735.53;;;10.55;100.00
73952;BME280;62304;47.662;18.324;2024-03-02T11:58:11;99740.84;;;10.74;100.00
73952;BME280;62304;47.662;18.324;2024-03-02T12:01:20;99732.44;;;10.67;100.00
73952;BME280;62304;47.662;18.324;2024-03-02T12:04:26;99732.09;;;10.72;100.00
73952;BME280;62304;47.662;18.324;2024-03-02T12:07:30;99733.34;;;10.81;100.00
73952;BME280;62304;47.662;18.324;2024-03-02T12:10:35;99737.75;;;10.86;100.00
73952;BME280;62304;47.662;18.324;2024-03-02T12:13:40;99740.59;;;10.96;100.00
73952;BME280;62304;47.662;18.324;2024-03-02T12:16:44;99725.94;;;10.96;100.00
73952;BME280;62304;47.662;18.324;2024-03-02T12:19:48;99726.37;;;11.08;100.00
73952;BME280;62304;47.662;18.324;2024-03-02T12:22:55;99724.78;;;11.07;100.00
73952;BME280;62304;47.662;18.324;2024-03-02T12:25:59;99696.47;;;10.74;100.00
73952;BME280;62304;47.662;18.324;2024-03-02T12:29:03;99728.72;;;10.99;100.00
73952;BME280;62304;47.662;18.324;2024-03-02T12:32:06;99729.91;;;10.98;100.00
73952;BME280;62304;47.662;18.324;2024-03-02T12:35:10;99727.78;;;10.81;100.00
73952;BME280;62304;47.662;18.324;2024-03-02T12:38:24;99727.63;;;10.57;100.00
73952;BME280;62304;47.662;18.324;2024-03-02T12:41:28;99724.63;;;10.79;100.00
73952;BME280;62304;47.662;18.324;2024-03-02T12:44:34;99727.88;;;10.88;100.00
73952;BME280;62304;47.662;18.324;2024-03-02T12:47:39;99726.16;;;10.73;100.00
73952;BME280;62304;47.662;18.324;2024-03-02T12:50:45;99723.16;;;10.38;100.00
73952;BME280;62304;47.662;18.324;2024-03-02T12:53:55;99726.91;;;10.67;100.00
73952;BME280;62304;47.662;18.324;2024-03-02T12:56:59;99730.09;;;10.65;100.00
73952;BME280;62304;47.662;18.324;2024-03-02T13:00:06;99726.13;;;10.66;100.00
73952;BME280;62304;47.662;18.324;2024-03-02T13:03:14;99722.88;;;10.54;100.00
73952;BME280;62304;47.662;18.324;2024-03-02T13:06:21;99718.22;;;10.72;100.00
73952;BME280;62304;47.662;18.324;2024-03-02T13:09:25;99723.88;;;10.82;100.00
73952;BME280;62304;47.662;18.324;2024-03-02T13:12:36;99716.31;;;10.83;100.00
73952;BME280;62304;47.662;18.324;2024-03-02T13:15:44;99722.31;;;10.88;100.00
73952;BME280;62304;47.662;18.324;2024-03-02T13:18:53;99715.19;;;10.87;100.00
73952;BME280;62304;47.662;18.324;2024-03-02T13:21:57;99711.13;;;10.74;100.00
73952;BME280;62304;47.662;18.324;2024-03-02T13:25:03;99722.34;;;10.92;100.00
73952;BME280;62304;47.662;18.324;2024-03-02T13:28:07;99719.13;;;10.90;100.00
73952;BME280;62304;47.662;18.324;2024-03-02T13:31:11;99721.13;;;10.89;100.00
73952;BME280;62304;47.662;18.324;2024-03-02T13:34:15;99717.53;;;10.85;100.00
73952;BME280;62304;47.662;18.324;2024-03-02T13:37:20;99725.81;;;10.78;100.00
73952;BME280;62304;47.662;18.324;2024-03-02T13:40:24;99719.00;;;10.69;100.00
73952;BME280;62304;47.662;18.324;2024-03-02T13:43:28;99721.69;;;10.58;100.00
73952;BME280;62304;47.662;18.324;2024-03-02T13:46:35;99725.19;;;10.48;100.00
73952;BME280;62304;47.662;18.324;2024-03-02T13:49:38;99704.78;;;10.23;100.00
73952;BME280;62304;47.662;18.324;2024-03-02T13:52:46;99725.09;;;10.34;100.00
73952;BME280;62304;47.662;18.324;2024-03-02T13:55:51;99721.94;;;10.36;100.00
73952;BME280;62304;47.662;18.324;2024-03-02T13:58:57;99714.28;;;10.22;100.00
73952;BME280;62304;47.662;18.324;2024-03-02T14:02:08;99730.50;;;10.20;100.00
73952;BME280;62304;47.662;18.324;2024-03-02T14:05:14;99733.56;;;10.12;100.00
73952;BME280;62304;47.662;18.324;2024-03-02T14:08:20;99738.34;;;10.11;100.00
73952;BME280;62304;47.662;18.324;2024-03-02T14:11:27;99732.72;;;10.04;100.00
73952;BME280;62304;47.662;18.324;2024-03-02T14:14:30;99741.03;;;10.04;100.00
73952;BME280;62304;47.662;18.324;2024-03-02T14:17:35;99733.56;;;10.08;100.00
73952;BME280;62304;47.662;18.324;2024-03-02T14:20:37;99735.13;;;10.09;100.00
73952;BME280;62304;47.662;18.324;2024-03-02T14:23:43;99740.69;;;10.09;100.00
73952;BME280;62304;47.662;18.324;2024-03-02T14:26:46;99741.50;;;10.10;100.00
73952;BME280;62304;47.662;18.324;2024-03-02T14:29:51;99739.06;;;10.05;100.00
73952;BME280;62304;47.662;18.324;2024-03-02T14:32:55;99734.56;;;9.93;100.00
